sensor_id;sensor_type;location;lat;lon;timestamp;pressure;altitude;pressure_sealevel;temperature
30001;BMP280;16845;48.670;9.000;2023-08-21T00:02:14;96084.78;;;23.48
30001;BMP280;16845;48.670;9.000;2023-08-21T00:04:40;96085.22;;;23.42
30001;BMP280;16845;48.670;9.000;2023-08-21T00:07:07;96082.88;;;23.39
30001;BMP280;16845;48.670;9.000;2023-08-21T00:09:33;96085.22;;;23.42
30001;BMP280;16845;48.670;9.000;2023-08-21T00:12:00;96086.16;;;23.41
30001;BMP280;16845;48.670;9.000;2023-08-21T00:14:26;96089.41;;;23.43
30001;BMP280;16845;48.670;9.000;2023-08-21T00:16:54;96083.28;;;23.46
30001;BMP280;16845;48.670;9.000;2023-08-21T00:19:21;96083.84;;;23.49
30001;BMP280;16845;48.670;9.000;2023-08-21T00:21:47;96082.03;;;23.51
30001;BMP280;16845;48.670;9.000;2023-08-21T00:24:14;96085.28;;;23.53
30001;BMP280;16845;48.670;9.000;2023-08-21T00:26:40;96084.47;;;23.53
30001;BMP280;16845;48.670;9.000;2023-08-21T00:29:07;96077.72;;;23.52
30001;BMP280;16845;48.670;9.000;2023-08-21T00:31:33;96078.31;;;23.55
30001;BMP280;16845;48.670;9.000;2023-08-21T00:34:01;96082.22;;;23.48
30001;BMP280;16845;48.670;9.000;2023-08-21T00:36:27;96073.44;;;23.40
30001;BMP280;16845;48.670;9.000;2023-08-21T00:38:54;96076.09;;;23.38
30001;BMP280;16845;48.670;9.000;2023-08-21T00:41:20;96069.56;;;23.34
30001;BMP280;16845;48.670;9.000;2023-08-21T00:43:47;96068.56;;;23.37
30001;BMP280;16845;48.670;9.000;2023-08-21T00:46:14;96071.22;;;23.35
30001;BMP280;16845;48.670;9.000;2023-08-21T00:48:41;96060.28;;;23.33
30001;BMP280;16845;48.670;9.000;2023-08-21T00:51:10;96063.84;;;23.31
30001;BMP280;16845;48.670;9.000;2023-08-21T00:53:38;96060.69;;;23.27
30001;BMP280;16845;48.670;9.000;2023-08-21T00:56:04;96066.94;;;23.23
30001;BMP280;16845;48.670;9.000;2023-08-21T00:58:31;96068.28;;;23.16
30001;BMP280;16845;48.670;9.000;2023-08-21T01:00:57;96069.63;;;23.09
30001;BMP280;16845;48.670;9.000;2023-08-21T01:03:24;96060.63;;;23.04
30001;BMP280;16845;48.670;9.000;2023-08-21T01:05:51;96055.72;;;23.01
30001;BMP280;16845;48.670;9.000;2023-08-21T01:08:22;96055.09;;;22.97
30001;BMP280;16845;48.670;9.000;2023-08-21T01:10:52;96058.59;;;22.96
30001;BMP280;16845;48.670;9.000;2023-08-21T01:13:26;96056.75;;;22.98
30001;BMP280;16845;48.670;9.000;2023-08-21T01:15:57;96054.59;;;22.92
30001;BMP280;16845;48.670;9.000;2023-08-21T01:18:24;96058.91;;;22.92
30001;BMP280;16845;48.670;9.000;2023-08-21T01:20:52;96058.06;;;22.91
30001;BMP280;16845;48.670;9.000;2023-08-21T01:23:31;96062.91;;;22.83
30001;BMP280;16845;48.670;9.000;2023-08-21T01:25:58;96058.19;;;22.77
30001;BMP280;16845;48.670;9.000;2023-08-21T01:28:24;96061.91;;;22.73
30001;BMP280;16845;48.670;9.000;2023-08-21T01:30:57;96059.53;;;22.70
30001;BMP280;16845;48.670;9.000;2023-08-21T01:33:26;96069.03;;;22.68
30001;BMP280;16845;48.670;9.000;2023-08-21T01:35:53;96065.16;;;22.63
30001;BMP280;16845;48.670;9.000;2023-08-21T01:38:20;96068.22;;;22.55
30001;BMP280;16845;48.670;9.000;2023-08-21T01:40:48;96063.94;;;22.56
30001;BMP280;16845;48.670;9.000;2023-08-21T01:43:14;96061.69;;;22.51
30001;BMP280;16845;48.670;9.000;2023-08-21T01:45:41;96059.66;;;22.44
30001;BMP280;16845;48.670;9.000;2023-08-21T01:48:08;96060.22;;;22.35
30001;BMP280;16845;48.670;9.000;2023-08-21T01:50:34;96058.88;;;22.29
30001;BMP280;16845;48.670;9.000;2023-08-21T01:53:01;96055.91;;;22.35
30001;BMP280;16845;48.670;9.000;2023-08-21T01:55:27;96053.34;;;22.35
30001;BMP280;16845;48.670;9.000;2023-08-21T01:57:55;96052.03;;;22.30
30001;BMP280;16845;48.670;9.000;2023-08-21T02:00:22;96047.97;;;22.40
30001;BMP280;16845;48.670;9.000;2023-08-21T02:02:48;96054.53;;;22.44
30001;BMP280;16845;48.670;9.000;2023-08-21T02:05:15;96045.13;;;22.44
30001;BMP280;16845;48.670;9.000;2023-08-21T02:07:41;96053.91;;;22.40
30001;BMP280;16845;48.670;9.000;2023-08-21T02:10:09;96051.16;;;22.43
30001;BMP280;16845;48.670;9.000;2023-08-21T02:12:35;96053.00;;;22.41
30001;BMP280;16845;48.670;9.000;2023-08-21T02:15:07;96053.09;;;22.40
30001;BMP280;16845;48.670;9.000;2023-08-21T02:17:34;96047.06;;;22.41
30001;BMP280;16845;48.670;9.000;2023-08-21T02:20:01;96052.28;;;22.39
30001;BMP280;16845;48.670;9.000;2023-08-21T02:22:27;96049.88;;;22.36
30001;BMP280;16845;48.670;9.000;2023-08-21T02:24:54;96052.44;;;22.36
30001;BMP280;16845;48.670;9.000;2023-08-21T02:27:21;96050.63;;;22.38
30001;BMP280;16845;48.670;9.000;2023-08-21T02:29:48;96054.28;;;22.34
30001;BMP280;16845;48.670;9.000;2023-08-21T02:32:16;96049.75;;;22.25
30001;BMP280;16845;48.670;9.000;2023-08-21T02:34:42;96057.00;;;22.19
30001;BMP280;16845;48.670;9.000;2023-08-21T02:37:08;96054.97;;;22.11
30001;BMP280;16845;48.670;9.000;2023-08-21T02:39:35;96055.25;;;22.07
30001;BMP280;16845;48.670;9.000;2023-08-21T02:42:02;96062.84;;;22.08
30001;BMP280;16845;48.670;9.000;2023-08-21T02:44:28;96067.53;;;22.02
30001;BMP280;16845;48.670;9.000;2023-08-21T02:46:55;96070.16;;;22.00
30001;BMP280;16845;48.670;9.000;2023-08-21T02:49:23;96062.50;;;22.00
30001;BMP280;16845;48.670;9.000;2023-08-21T02:51:49;96068.03;;;21.94
30001;BMP280;16845;48.670;9.000;2023-08-21T02:54:16;96068.94;;;21.93
30001;BMP280;16845;48.670;9.000;2023-08-21T02:56:42;96068.31;;;21.90
30001;BMP280;16845;48.670;9.000;2023-08-21T02:59:08;96069.13;;;21.90
30001;BMP280;16845;48.670;9.000;2023-08-21T03:01:35;96068.59;;;21.85
30001;BMP280;16845;48.670;9.000;2023-08-21T03:04:01;96069.19;;;21.76
30001;BMP280;16845;48.670;9.000;2023-08-21T03:06:29;96061.72;;;21.73
30001;BMP280;16845;48.670;9.000;2023-08-21T03:08:56;96066.13;;;21.72
30001;BMP280;16845;48.670;9.000;2023-08-21T03:11:22;96065.19;;;21.73
30001;BMP280;16845;48.670;9.000;2023-08-21T03:13:49;96069.47;;;21.72
30001;BMP280;16845;48.670;9.000;2023-08-21T03:16:15;96069.88;;;21.66
30001;BMP280;16845;48.670;9.000;2023-08-21T03:18:54;96061.38;;;21.66
30001;BMP280;16845;48.670;9.000;2023-08-21T03:21:21;96065.56;;;21.67
30001;BMP280;16845;48.670;9.000;2023-08-21T03:23:50;96062.09;;;21.67
30001;BMP280;16845;48.670;9.000;2023-08-21T03:26:16;96066.50;;;21.66
30001;BMP280;16845;48.670;9.000;2023-08-21T03:28:43;96071.72;;;21.64
30001;BMP280;16845;48.670;9.000;2023-08-21T03:31:09;96070.50;;;21.70
30001;BMP280;16845;48.670;9.000;2023-08-21T03:33:36;96063.75;;;21.68
30001;BMP280;16845;48.670;9.000;2023-08-21T03:36:03;96063.94;;;21.66
30001;BMP280;16845;48.670;9.000;2023-08-21T03:38:30;96060.94;;;21.59
30001;BMP280;16845;48.670;9.000;2023-08-21T03:40:58;96070.41;;;21.57
30001;BMP280;16845;48.670;9.000;2023-08-21T03:43:25;96071.06;;;21.61
30001;BMP280;16845;48.670;9.000;2023-08-21T03:45:51;96062.47;;;21.62
30001;BMP280;16845;48.670;9.000;2023-08-21T03:48:18;96060.69;;;21.64
30001;BMP280;16845;48.670;9.000;2023-08-21T03:50:44;96068.38;;;21.62
30001;BMP280;16845;48.670;9.000;2023-08-21T03:53:11;96062.69;;;21.59
30001;BMP280;16845;48.670;9.000;2023-08-21T03:55:37;96071.25;;;21.58
30001;BMP280;16845;48.670;9.000;2023-08-21T03:58:05;96068.88;;;21.55
30001;BMP280;16845;48.670;9.000;2023-08-21T04:00:32;96076.00;;;21.50
30001;BMP280;16845;48.670;9.000;2023-08-21T04:02:58;96080.41;;;21.48
30001;BMP280;16845;48.670;9.000;2023-08-21T04:05:25;96081.47;;;21.44
30001;BMP280;16845;48.670;9.000;2023-08-21T04:07:51;96085.16;;;21.40
30001;BMP280;16845;48.670;9.000;2023-08-21T04:10:18;96090.97;;;21.42
30001;BMP280;16845;48.670;9.000;2023-08-21T04:12:44;96086.88;;;21.39
30001;BMP280;16845;48.670;9.000;2023-08-21T04:15:12;96094.81;;;21.35
30001;BMP280;16845;48.670;9.000;2023-08-21T04:17:38;96096.84;;;21.30
30001;BMP280;16845;48.670;9.000;2023-08-21T04:20:06;96092.56;;;21.30
30001;BMP280;16845;48.670;9.000;2023-08-21T04:22:33;96090.00;;;21.30
30001;BMP280;16845;48.670;9.000;2023-08-21T04:25:00;96090.53;;;21.35
30001;BMP280;16845;48.670;9.000;2023-08-21T04:27:26;96092.25;;;21.35
30001;BMP280;16845;48.670;9.000;2023-08-21T04:29:53;96097.56;;;21.32
30001;BMP280;16845;48.670;9.000;2023-08-21T04:32:20;96107.69;;;21.33
30001;BMP280;16845;48.670;9.000;2023-08-21T04:34:47;96100.09;;;21.32
30001;BMP280;16845;48.670;9.000;2023-08-21T04:37:13;96100.09;;;21.32
30001;BMP280;16845;48.670;9.000;2023-08-21T04:39:40;96100.22;;;21.30
30001;BMP280;16845;48.670;9.000;2023-08-21T04:42:06;96105.41;;;21.29
30001;BMP280;16845;48.670;9.000;2023-08-21T04:44:33;96103.97;;;21.25
30001;BMP280;16845;48.670;9.000;2023-08-21T04:47:20;96105.59;;;21.26
30001;BMP280;16845;48.670;9.000;2023-08-21T04:49:47;96099.31;;;21.31
30001;BMP280;16845;48.670;9.000;2023-08-21T04:52:14;96105.00;;;21.35
30001;BMP280;16845;48.670;9.000;2023-08-21T04:54:40;96094.63;;;21.38
30001;BMP280;16845;48.670;9.000;2023-08-21T04:57:07;96103.66;;;21.43
30001;BMP280;16845;48.670;9.000;2023-08-21T04:59:34;96098.97;;;21.50
30001;BMP280;16845;48.670;9.000;2023-08-21T05:02:01;96096.78;;;21.58
30001;BMP280;16845;48.670;9.000;2023-08-21T05:04:29;96099.94;;;21.61
30001;BMP280;16845;48.670;9.000;2023-08-21T05:06:55;96112.38;;;21.67
30001;BMP280;16845;48.670;9.000;2023-08-21T05:09:22;96112.16;;;21.70
30001;BMP280;16845;48.670;9.000;2023-08-21T05:11:48;96113.59;;;21.74
30001;BMP280;16845;48.670;9.000;2023-08-21T05:14:15;96106.41;;;21.80
30001;BMP280;16845;48.670;9.000;2023-08-21T05:16:41;96108.25;;;21.91
30001;BMP280;16845;48.670;9.000;2023-08-21T05:19:08;96113.78;;;21.97
30001;BMP280;16845;48.670;9.000;2023-08-21T05:21:36;96114.31;;;22.02
30001;BMP280;16845;48.670;9.000;2023-08-21T05:24:02;96123.22;;;22.09
30001;BMP280;16845;48.670;9.000;2023-08-21T05:26:29;96121.44;;;22.24
30001;BMP280;16845;48.670;9.000;2023-08-21T05:28:55;96118.88;;;22.36
30001;BMP280;16845;48.670;9.000;2023-08-21T05:31:22;96120.53;;;22.37
30001;BMP280;16845;48.670;9.000;2023-08-21T05:33:49;96119.78;;;22.49
30001;BMP280;16845;48.670;9.000;2023-08-21T05:36:15;96120.19;;;22.56
30001;BMP280;16845;48.670;9.000;2023-08-21T05:38:43;96114.97;;;22.70
30001;BMP280;16845;48.670;9.000;2023-08-21T05:41:09;96116.28;;;22.88
30001;BMP280;16845;48.670;9.000;2023-08-21T05:43:36;96124.78;;;23.01
30001;BMP280;16845;48.670;9.000;2023-08-21T05:46:05;96119.16;;;23.21
30001;BMP280;16845;48.670;9.000;2023-08-21T05:48:31;96114.63;;;23.37
30001;BMP280;16845;48.670;9.000;2023-08-21T05:50:58;96120.44;;;23.51
30001;BMP280;16845;48.670;9.000;2023-08-21T05:53:24;96118.66;;;23.64
30001;BMP280;16845;48.670;9.000;2023-08-21T05:55:52;96117.97;;;23.86
30001;BMP280;16845;48.670;9.000;2023-08-21T05:58:19;96115.41;;;24.09
30001;BMP280;16845;48.670;9.000;2023-08-21T06:00:46;96113.69;;;24.21
30001;BMP280;16845;48.670;9.000;2023-08-21T06:03:13;96119.56;;;24.33
30001;BMP280;16845;48.670;9.000;2023-08-21T06:05:40;96110.97;;;24.45
30001;BMP280;16845;48.670;9.000;2023-08-21T06:08:06;96109.06;;;24.60
30001;BMP280;16845;48.670;9.000;2023-08-21T06:10:33;96111.91;;;24.79
30001;BMP280;16845;48.670;9.000;2023-08-21T06:13:01;96112.28;;;24.96
30001;BMP280;16845;48.670;9.000;2023-08-21T06:15:27;96109.50;;;25.21
30001;BMP280;16845;48.670;9.000;2023-08-21T06:17:54;96118.72;;;25.24
30001;BMP280;16845;48.670;9.000;2023-08-21T06:20:20;96113.09;;;25.52
30001;BMP280;16845;48.670;9.000;2023-08-21T06:22:47;96113.28;;;25.71
30001;BMP280;16845;48.670;9.000;2023-08-21T06:25:13;96112.75;;;25.99
30001;BMP280;16845;48.670;9.000;2023-08-21T06:27:40;96117.13;;;26.19
30001;BMP280;16845;48.670;9.000;2023-08-21T06:30:23;96113.09;;;26.37
30001;BMP280;16845;48.670;9.000;2023-08-21T06:32:49;96107.59;;;26.62
30001;BMP280;16845;48.670;9.000;2023-08-21T06:35:16;96113.72;;;26.90
30001;BMP280;16845;48.670;9.000;2023-08-21T06:37:43;96115.38;;;26.92
30001;BMP280;16845;48.670;9.000;2023-08-21T06:40:09;96120.03;;;27.27
30001;BMP280;16845;48.670;9.000;2023-08-21T06:42:36;96122.09;;;27.33
30001;BMP280;16845;48.670;9.000;2023-08-21T06:45:04;96117.81;;;27.53
30001;BMP280;16845;48.670;9.000;2023-08-21T06:47:32;96120.66;;;27.89
30001;BMP280;16845;48.670;9.000;2023-08-21T06:49:58;96124.75;;;28.20
30001;BMP280;16845;48.670;9.000;2023-08-21T06:52:25;96127.22;;;28.41
30001;BMP280;16845;48.670;9.000;2023-08-21T06:54:52;96118.94;;;28.37
30001;BMP280;16845;48.670;9.000;2023-08-21T06:57:18;96118.75;;;28.86
30001;BMP280;16845;48.670;9.000;2023-08-21T06:59:45;96129.22;;;28.94
30001;BMP280;16845;48.670;9.000;2023-08-21T07:02:11;96126.88;;;29.10
30001;BMP280;16845;48.670;9.000;2023-08-21T07:04:39;96129.19;;;29.40
30001;BMP280;16845;48.670;9.000;2023-08-21T07:07:06;96126.19;;;29.54
30001;BMP280;16845;48.670;9.000;2023-08-21T07:09:32;96135.56;;;29.55
30001;BMP280;16845;48.670;9.000;2023-08-21T07:11:58;96125.50;;;30.06
30001;BMP280;16845;48.670;9.000;2023-08-21T07:14:25;96121.25;;;30.32
30001;BMP280;16845;48.670;9.000;2023-08-21T07:16:52;96124.63;;;30.15
30001;BMP280;16845;48.670;9.000;2023-08-21T07:19:18;96115.13;;;30.58
30001;BMP280;16845;48.670;9.000;2023-08-21T07:21:46;96119.91;;;30.88
30001;BMP280;16845;48.670;9.000;2023-08-21T07:24:12;96118.72;;;31.26
30001;BMP280;16845;48.670;9.000;2023-08-21T07:26:39;96123.44;;;30.44
30001;BMP280;16845;48.670;9.000;2023-08-21T07:29:05;96127.41;;;31.17
30001;BMP280;16845;48.670;9.000;2023-08-21T07:31:32;96125.25;;;31.38
30001;BMP280;16845;48.670;9.000;2023-08-21T07:33:58;96122.03;;;31.69
30001;BMP280;16845;48.670;9.000;2023-08-21T07:36:25;96124.56;;;32.11
30001;BMP280;16845;48.670;9.000;2023-08-21T07:38:53;96124.47;;;32.52
30001;BMP280;16845;48.670;9.000;2023-08-21T07:41:19;96122.28;;;32.08
30001;BMP280;16845;48.670;9.000;2023-08-21T07:43:46;96119.72;;;32.16
30001;BMP280;16845;48.670;9.000;2023-08-21T07:46:12;96129.69;;;32.68
30001;BMP280;16845;48.670;9.000;2023-08-21T07:48:39;96129.06;;;32.74
30001;BMP280;16845;48.670;9.000;2023-08-21T07:51:06;96132.13;;;33.01
30001;BMP280;16845;48.670;9.000;2023-08-21T07:53:33;96129.19;;;32.64
30001;BMP280;16845;48.670;9.000;2023-08-21T07:56:01;96136.47;;;33.09
30001;BMP280;16845;48.670;9.000;2023-08-21T07:58:27;96134.53;;;33.35
30001;BMP280;16845;48.670;9.000;2023-08-21T08:00:54;96129.88;;;33.61
30001;BMP280;16845;48.670;9.000;2023-08-21T08:03:20;96133.81;;;33.57
30001;BMP280;16845;48.670;9.000;2023-08-21T08:05:47;96135.50;;;33.88
30001;BMP280;16845;48.670;9.000;2023-08-21T08:08:21;96129.28;;;33.43
30001;BMP280;16845;48.670;9.000;2023-08-21T08:10:48;96132.44;;;33.06
30001;BMP280;16845;48.670;9.000;2023-08-21T08:13:16;96130.84;;;32.81
30001;BMP280;16845;48.670;9.000;2023-08-21T08:15:42;96129.84;;;32.66
30001;BMP280;16845;48.670;9.000;2023-08-21T08:18:11;96131.78;;;32.64
30001;BMP280;16845;48.670;9.000;2023-08-21T08:20:38;96130.56;;;31.62
30001;BMP280;16845;48.670;9.000;2023-08-21T08:23:05;96133.00;;;32.05
30001;BMP280;16845;48.670;9.000;2023-08-21T08:25:31;96133.88;;;33.09
30001;BMP280;16845;48.670;9.000;2023-08-21T08:27:58;96132.00;;;33.57
30001;BMP280;16845;48.670;9.000;2023-08-21T08:30:25;96120.75;;;34.03
30001;BMP280;16845;48.670;9.000;2023-08-21T08:32:52;96129.84;;;33.22
30001;BMP280;16845;48.670;9.000;2023-08-21T08:35:18;96115.91;;;34.76
30001;BMP280;16845;48.670;9.000;2023-08-21T08:37:45;96114.72;;;35.15
30001;BMP280;16845;48.670;9.000;2023-08-21T08:40:11;96120.00;;;34.25
30001;BMP280;16845;48.670;9.000;2023-08-21T08:42:38;96117.94;;;34.88
30001;BMP280;16845;48.670;9.000;2023-08-21T08:45:06;96123.69;;;34.08
30001;BMP280;16845;48.670;9.000;2023-08-21T08:47:35;96130.50;;;32.92
30001;BMP280;16845;48.670;9.000;2023-08-21T08:50:03;96128.88;;;32.43
30001;BMP280;16845;48.670;9.000;2023-08-21T08:52:31;96122.31;;;32.16
30001;BMP280;16845;48.670;9.000;2023-08-21T08:55:00;96121.75;;;32.93
30001;BMP280;16845;48.670;9.000;2023-08-21T08:57:26;96121.34;;;34.13
30001;BMP280;16845;48.670;9.000;2023-08-21T08:59:53;96124.00;;;34.05
30001;BMP280;16845;48.670;9.000;2023-08-21T09:02:19;96117.44;;;34.62
30001;BMP280;16845;48.670;9.000;2023-08-21T09:04:47;96117.56;;;34.91
30001;BMP280;16845;48.670;9.000;2023-08-21T09:07:17;96111.44;;;34.62
30001;BMP280;16845;48.670;9.000;2023-08-21T09:09:45;96112.34;;;33.93
30001;BMP280;16845;48.670;9.000;2023-08-21T09:12:13;96115.78;;;35.06
30001;BMP280;16845;48.670;9.000;2023-08-21T09:14:40;96122.75;;;33.93
30001;BMP280;16845;48.670;9.000;2023-08-21T09:17:06;96118.94;;;34.42
30001;BMP280;16845;48.670;9.000;2023-08-21T09:19:33;96118.28;;;35.80
30001;BMP280;16845;48.670;9.000;2023-08-21T09:22:07;96107.72;;;35.88
30001;BMP280;16845;48.670;9.000;2023-08-21T09:24:34;96121.00;;;33.94
30001;BMP280;16845;48.670;9.000;2023-08-21T09:27:01;96117.72;;;33.53
30001;BMP280;16845;48.670;9.000;2023-08-21T09:29:28;96117.94;;;33.82
30001;BMP280;16845;48.670;9.000;2023-08-21T09:32:04;96112.00;;;34.94
30001;BMP280;16845;48.670;9.000;2023-08-21T09:34:33;96112.13;;;36.79
30001;BMP280;16845;48.670;9.000;2023-08-21T09:37:00;96102.00;;;37.52
30001;BMP280;16845;48.670;9.000;2023-08-21T09:39:33;96112.63;;;34.82
30001;BMP280;16845;48.670;9.000;2023-08-21T09:42:00;96114.75;;;33.64
30001;BMP280;16845;48.670;9.000;2023-08-21T09:44:26;96124.72;;;31.60
30001;BMP280;16845;48.670;9.000;2023-08-21T09:46:53;96114.59;;;31.41
30001;BMP280;16845;48.670;9.000;2023-08-21T09:49:20;96122.09;;;31.52
30001;BMP280;16845;48.670;9.000;2023-08-21T09:51:47;96115.56;;;31.40
30001;BMP280;16845;48.670;9.000;2023-08-21T09:54:14;96108.63;;;31.82
30001;BMP280;16845;48.670;9.000;2023-08-21T09:56:42;96114.25;;;32.58
30001;BMP280;16845;48.670;9.000;2023-08-21T09:59:10;96109.50;;;33.18
30001;BMP280;16845;48.670;9.000;2023-08-21T10:01:38;96116.19;;;33.12
30001;BMP280;16845;48.670;9.000;2023-08-21T10:04:06;96108.69;;;32.14
30001;BMP280;16845;48.670;9.000;2023-08-21T10:06:34;96097.66;;;34.98
30001;BMP280;16845;48.670;9.000;2023-08-21T10:09:01;96103.25;;;35.82
30001;BMP280;16845;48.670;9.000;2023-08-21T10:11:28;96102.84;;;36.14
30001;BMP280;16845;48.670;9.000;2023-08-21T10:13:56;96100.22;;;35.49
30001;BMP280;16845;48.670;9.000;2023-08-21T10:16:23;96098.44;;;34.99
30001;BMP280;16845;48.670;9.000;2023-08-21T10:18:49;96095.91;;;34.76
30001;BMP280;16845;48.670;9.000;2023-08-21T10:21:17;96098.88;;;36.18
30001;BMP280;16845;48.670;9.000;2023-08-21T10:23:46;96085.72;;;37.23
30001;BMP280;16845;48.670;9.000;2023-08-21T10:26:13;96084.34;;;38.01
30001;BMP280;16845;48.670;9.000;2023-08-21T10:28:49;96071.31;;;38.33
30001;BMP280;16845;48.670;9.000;2023-08-21T10:31:27;96076.56;;;38.33
30001;BMP280;16845;48.670;9.000;2023-08-21T10:33:54;96075.50;;;37.00
30001;BMP280;16845;48.670;9.000;2023-08-21T10:39:36;96065.41;;;36.49
30001;BMP280;16845;48.670;9.000;2023-08-21T10:42:04;96067.91;;;37.05
30001;BMP280;16845;48.670;9.000;2023-08-21T10:44:46;96074.34;;;37.03
30001;BMP280;16845;48.670;9.000;2023-08-21T10:47:16;96063.91;;;37.03
30001;BMP280;16845;48.670;9.000;2023-08-21T10:49:44;96061.31;;;36.19
30001;BMP280;16845;48.670;9.000;2023-08-21T10:52:10;96074.50;;;36.74
30001;BMP280;16845;48.670;9.000;2023-08-21T10:54:44;96063.88;;;37.71
30001;BMP280;16845;48.670;9.000;2023-08-21T10:57:10;96061.06;;;37.79
30001;BMP280;16845;48.670;9.000;2023-08-21T10:59:37;96072.69;;;37.63
30001;BMP280;16845;48.670;9.000;2023-08-21T11:02:05;96060.50;;;38.75
30001;BMP280;16845;48.670;9.000;2023-08-21T11:04:40;96051.59;;;38.37
30001;BMP280;16845;48.670;9.000;2023-08-21T11:07:07;96057.78;;;38.23
30001;BMP280;16845;48.670;9.000;2023-08-21T11:09:35;96058.31;;;38.85
30001;BMP280;16845;48.670;9.000;2023-08-21T11:12:05;96056.50;;;36.58
30001;BMP280;16845;48.670;9.000;2023-08-21T11:14:32;96062.41;;;35.02
30001;BMP280;16845;48.670;9.000;2023-08-21T11:16:59;96062.09;;;35.19
30001;BMP280;16845;48.670;9.000;2023-08-21T11:19:25;96059.06;;;34.79
30001;BMP280;16845;48.670;9.000;2023-08-21T11:21:53;96057.28;;;34.35
30001;BMP280;16845;48.670;9.000;2023-08-21T11:24:19;96068.00;;;33.48
30001;BMP280;16845;48.670;9.000;2023-08-21T11:26:46;96062.47;;;34.12
30001;BMP280;16845;48.670;9.000;2023-08-21T11:29:13;96065.53;;;33.93
30001;BMP280;16845;48.670;9.000;2023-08-21T11:31:39;96066.56;;;36.61
30001;BMP280;16845;48.670;9.000;2023-08-21T11:34:06;96057.16;;;38.02
30001;BMP280;16845;48.670;9.000;2023-08-21T11:36:48;96063.59;;;37.99
30001;BMP280;16845;48.670;9.000;2023-08-21T11:39:16;96056.06;;;38.95
30001;BMP280;16845;48.670;9.000;2023-08-21T11:41:56;96048.13;;;40.66
30001;BMP280;16845;48.670;9.000;2023-08-21T11:44:22;96045.97;;;38.53
30001;BMP280;16845;48.670;9.000;2023-08-21T11:46:50;96046.47;;;37.16
30001;BMP280;16845;48.670;9.000;2023-08-21T11:49:17;96045.50;;;35.12
30001;BMP280;16845;48.670;9.000;2023-08-21T11:51:45;96048.47;;;34.58
30001;BMP280;16845;48.670;9.000;2023-08-21T11:54:12;96039.81;;;37.14
30001;BMP280;16845;48.670;9.000;2023-08-21T11:56:40;96045.16;;;35.44
30001;BMP280;16845;48.670;9.000;2023-08-21T11:59:06;96041.47;;;36.24
30001;BMP280;16845;48.670;9.000;2023-08-21T12:01:33;96034.97;;;36.14
30001;BMP280;16845;48.670;9.000;2023-08-21T12:04:00;96040.56;;;35.75
30001;BMP280;16845;48.670;9.000;2023-08-21T12:06:27;96040.53;;;34.74
30001;BMP280;16845;48.670;9.000;2023-08-21T12:08:53;96044.69;;;33.24
30001;BMP280;16845;48.670;9.000;2023-08-21T12:11:20;96042.53;;;32.57
30001;BMP280;16845;48.670;9.000;2023-08-21T12:13:49;96039.28;;;32.24
30001;BMP280;16845;48.670;9.000;2023-08-21T12:16:16;96048.06;;;32.54
30001;BMP280;16845;48.670;9.000;2023-08-21T12:18:42;96046.66;;;33.14
30001;BMP280;16845;48.670;9.000;2023-08-21T12:21:09;96044.03;;;34.44
30001;BMP280;16845;48.670;9.000;2023-08-21T12:23:35;96033.56;;;34.52
30001;BMP280;16845;48.670;9.000;2023-08-21T12:26:02;96030.25;;;34.13
30001;BMP280;16845;48.670;9.000;2023-08-21T12:28:28;96050.47;;;33.50
30001;BMP280;16845;48.670;9.000;2023-08-21T12:30:56;96039.97;;;33.36
30001;BMP280;16845;48.670;9.000;2023-08-21T12:33:23;96027.97;;;33.27
30001;BMP280;16845;48.670;9.000;2023-08-21T12:35:50;96024.59;;;33.02
30001;BMP280;16845;48.670;9.000;2023-08-21T12:38:17;96029.19;;;32.68
30001;BMP280;16845;48.670;9.000;2023-08-21T12:40:43;96030.03;;;32.61
30001;BMP280;16845;48.670;9.000;2023-08-21T12:43:10;96032.44;;;31.83
30001;BMP280;16845;48.670;9.000;2023-08-21T12:45:36;96023.69;;;32.63
30001;BMP280;16845;48.670;9.000;2023-08-21T12:48:05;96017.88;;;32.06
30001;BMP280;16845;48.670;9.000;2023-08-21T12:50:32;96018.72;;;32.22
30001;BMP280;16845;48.670;9.000;2023-08-21T12:52:59;96017.22;;;32.04
30001;BMP280;16845;48.670;9.000;2023-08-21T12:55:26;96011.53;;;32.16
30001;BMP280;16845;48.670;9.000;2023-08-21T12:57:52;96017.97;;;31.72
30001;BMP280;16845;48.670;9.000;2023-08-21T13:00:19;96014.78;;;31.37
30001;BMP280;16845;48.670;9.000;2023-08-21T13:02:45;96016.75;;;31.51
30001;BMP280;16845;48.670;9.000;2023-08-21T13:05:13;96019.06;;;31.62
30001;BMP280;16845;48.670;9.000;2023-08-21T13:07:41;96020.66;;;31.47
30001;BMP280;16845;48.670;9.000;2023-08-21T13:10:08;96021.38;;;31.23
30001;BMP280;16845;48.670;9.000;2023-08-21T13:12:34;96017.50;;;30.94
30001;BMP280;16845;48.670;9.000;2023-08-21T13:15:02;96017.88;;;30.73
30001;BMP280;16845;48.670;9.000;2023-08-21T13:17:28;96019.34;;;31.09
30001;BMP280;16845;48.670;9.000;2023-08-21T13:19:55;96014.50;;;31.56
30001;BMP280;16845;48.670;9.000;2023-08-21T13:22:22;96015.25;;;31.82
30001;BMP280;16845;48.670;9.000;2023-08-21T13:24:49;96008.16;;;32.32
30001;BMP280;16845;48.670;9.000;2023-08-21T13:27:15;96008.63;;;33.29
30001;BMP280;16845;48.670;9.000;2023-08-21T13:29:42;96003.19;;;33.69
30001;BMP280;16845;48.670;9.000;2023-08-21T13:32:08;96001.25;;;32.94
30001;BMP280;16845;48.670;9.000;2023-08-21T13:34:35;96006.41;;;33.10
30001;BMP280;16845;48.670;9.000;2023-08-21T13:37:01;96004.28;;;33.83
30001;BMP280;16845;48.670;9.000;2023-08-21T13:39:29;96008.84;;;33.12
30001;BMP280;16845;48.670;9.000;2023-08-21T13:41:56;96000.78;;;33.68
30001;BMP280;16845;48.670;9.000;2023-08-21T13:44:22;95994.88;;;33.51
30001;BMP280;16845;48.670;9.000;2023-08-21T13:46:48;95986.03;;;33.30
30001;BMP280;16845;48.670;9.000;2023-08-21T13:49:15;95994.09;;;32.96
30001;BMP280;16845;48.670;9.000;2023-08-21T13:51:41;95989.91;;;32.79
30001;BMP280;16845;48.670;9.000;2023-08-21T13:54:08;95986.09;;;33.06
30001;BMP280;16845;48.670;9.000;2023-08-21T13:56:36;95988.94;;;32.80
30001;BMP280;16845;48.670;9.000;2023-08-21T13:59:02;95985.84;;;32.93
30001;BMP280;16845;48.670;9.000;2023-08-21T14:01:29;95993.06;;;32.43
30001;BMP280;16845;48.670;9.000;2023-08-21T14:03:55;95985.44;;;32.18
30001;BMP280;16845;48.670;9.000;2023-08-21T14:06:22;95977.47;;;31.79
30001;BMP280;16845;48.670;9.000;2023-08-21T14:08:48;95988.16;;;31.68
30001;BMP280;16845;48.670;9.000;2023-08-21T14:11:15;95975.47;;;31.57
30001;BMP280;16845;48.670;9.000;2023-08-21T14:13:42;95983.34;;;31.40